createdAt,value
2023-04-22T00:01:02.334Z,100.00
2023-04-22T00:03:30.163Z,100.00
2023-04-22T00:05:57.205Z,100.00
2023-04-22T00:08:25.486Z,100.00
2023-04-22T00:10:52.106Z,100.00
2023-04-22T00:13:18.736Z,100.00
2023-04-22T00:15:45.598Z,100.00
2023-04-22T00:18:14.028Z,100.00
2023-04-22T00:20:44.216Z,100.00
2023-04-22T00:23:14.617Z,100.00
2023-04-22T00:25:41.311Z,100.00
2023-04-22T00:28:08.347Z,100.00
2023-04-22T00:30:35.921Z,100.00
2023-04-22T00:33:02.631Z,100.00
2023-04-22T00:35:29.344Z,100.00
2023-04-22T00:37:57.297Z,100.00
2023-04-22T00:40:23.971Z,100.00
2023-04-22T00:42:51.269Z,100.00
2023-04-22T00:45:20.898Z,100.00
2023-04-22T00:47:48.977Z,100.00
2023-04-22T00:50:16.426Z,100.00
2023-04-22T00:52:43.147Z,100.00
2023-04-22T00:55:12.559Z,100.00
2023-04-22T00:57:39.828Z,100.00
2023-04-22T01:00:09.699Z,100.00
2023-04-22T01:02:38.793Z,100.00
2023-04-22T01:05:12.939Z,100.00
2023-04-22T01:07:39.546Z,100.00
2023-04-22T01:10:06.775Z,100.00
2023-04-22T01:12:33.525Z,100.00
2023-04-22T01:15:03.742Z,100.00
2023-04-22T01:17:32.047Z,100.00
2023-04-22T01:19:59.299Z,100.00
2023-04-22T01:22:29.492Z,100.00
2023-04-22T01:24:56.621Z,100.00
2023-04-22T01:27:23.825Z,100.00
2023-04-22T01:29:52.238Z,100.00
2023-04-22T01:32:19.722Z,100.00
2023-04-22T01:34:46.530Z,100.00
2023-04-22T01:37:13.186Z,100.00
2023-04-22T01:39:40.300Z,100.00
2023-04-22T01:42:07.830Z,100.00
2023-04-22T01:44:34.478Z,100.00
2023-04-22T01:47:01.092Z,100.00
2023-04-22T01:49:27.809Z,100.00
2023-04-22T01:51:54.738Z,100.00
2023-04-22T01:54:21.387Z,100.00
2023-04-22T01:56:53.396Z,100.00
2023-04-22T01:59:21.490Z,100.00
2023-04-22T02:01:48.368Z,100.00
2023-04-22T02:04:15.027Z,100.00
2023-04-22T02:06:41.744Z,100.00
2023-04-22T02:09:08.370Z,100.00
2023-04-22T02:11:35.447Z,100.00
2023-04-22T02:14:02.019Z,100.00
2023-04-22T02:16:28.809Z,100.00
2023-04-22T02:18:55.545Z,100.00
2023-04-22T02:21:22.253Z,100.00
2023-04-22T02:23:49.065Z,100.00
2023-04-22T02:26:15.628Z,100.00
2023-04-22T02:28:42.769Z,100.00
2023-04-22T02:31:09.582Z,100.00
2023-04-22T02:33:36.444Z,100.00
2023-04-22T02:36:03.200Z,100.00
2023-04-22T02:38:29.851Z,100.00
2023-04-22T02:40:56.413Z,100.00
2023-04-22T02:43:23.138Z,100.00
2023-04-22T02:45:49.752Z,100.00
2023-04-22T02:48:16.415Z,100.00
2023-04-22T02:50:43.090Z,100.00
2023-04-22T02:53:09.758Z,100.00
2023-04-22T02:55:36.347Z,100.00
2023-04-22T02:58:02.959Z,100.00
2023-04-22T03:00:29.815Z,100.00
2023-04-22T03:02:56.770Z,100.00
2023-04-22T03:05:23.545Z,100.00
2023-04-22T03:07:50.360Z,100.00
2023-04-22T03:10:17.182Z,100.00
2023-04-22T03:12:43.773Z,100.00
2023-04-22T03:15:10.949Z,100.00
2023-04-22T03:17:37.614Z,100.00
2023-04-22T03:20:04.685Z,100.00
2023-04-22T03:22:31.360Z,100.00
2023-04-22T03:24:58.122Z,100.00
2023-04-22T03:27:26.920Z,100.00
2023-04-22T03:29:53.544Z,100.00
2023-04-22T03:32:20.316Z,100.00
2023-04-22T03:34:46.909Z,100.00
2023-04-22T03:37:13.530Z,100.00
2023-04-22T03:39:40.668Z,100.00
2023-04-22T03:42:07.504Z,100.00
2023-04-22T03:44:34.133Z,100.00
2023-04-22T03:47:00.716Z,100.00
2023-04-22T03:49:27.963Z,100.00
2023-04-22T03:51:54.601Z,100.00
2023-04-22T03:54:21.354Z,100.00
2023-04-22T03:56:48.069Z,100.00
2023-04-22T03:59:14.708Z,100.00
2023-04-22T04:01:41.454Z,100.00
2023-04-22T04:04:08.365Z,100.00
2023-04-22T04:06:35.481Z,100.00
2023-04-22T04:09:02.184Z,100.00
2023-04-22T04:11:28.865Z,100.00
2023-04-22T04:13:55.435Z,100.00
2023-04-22T04:16:22.284Z,100.00
2023-04-22T04:18:52.453Z,100.00
2023-04-22T04:21:19.039Z,100.00
2023-04-22T04:23:46.819Z,100.00
2023-04-22T04:26:14.998Z,100.00
2023-04-22T04:28:41.723Z,100.00
2023-04-22T04:31:08.441Z,100.00
2023-04-22T04:33:36.950Z,100.00
2023-04-22T04:36:04.316Z,100.00
2023-04-22T04:38:31.042Z,100.00
2023-04-22T04:40:58.031Z,100.00
2023-04-22T04:43:26.082Z,100.00
2023-04-22T04:45:53.490Z,100.00
2023-04-22T04:48:20.289Z,100.00
2023-04-22T04:50:47.108Z,100.00
2023-04-22T04:53:13.731Z,100.00
2023-04-22T04:55:40.594Z,100.00
2023-04-22T04:58:07.264Z,100.00
2023-04-22T05:00:33.955Z,100.00
2023-04-22T05:03:00.885Z,100.00
2023-04-22T05:05:28.570Z,100.00
2023-04-22T05:07:55.229Z,100.00
2023-04-22T05:10:21.882Z,100.00
2023-04-22T05:12:48.511Z,100.00
2023-04-22T05:15:15.460Z,100.00
2023-04-22T05:17:42.138Z,100.00
2023-04-22T05:20:09.173Z,100.00
2023-04-22T05:22:41.354Z,100.00
2023-04-22T05:25:08.662Z,100.00
2023-04-22T05:27:37.569Z,100.00
2023-04-22T05:30:04.685Z,100.00
2023-04-22T05:32:31.345Z,100.00
2023-04-22T05:34:58.007Z,100.00
2023-04-22T05:37:24.595Z,100.00
2023-04-22T05:39:51.276Z,100.00
2023-04-22T05:42:17.938Z,100.00
2023-04-22T05:44:44.564Z,100.00
2023-04-22T05:47:11.267Z,100.00
2023-04-22T05:49:38.237Z,100.00
2023-04-22T05:52:05.317Z,100.00
2023-04-22T05:54:31.966Z,100.00
2023-04-22T05:56:58.932Z,100.00
2023-04-22T05:59:26.513Z,100.00
2023-04-22T06:01:53.216Z,100.00
2023-04-22T06:04:20.082Z,100.00
2023-04-22T06:06:48.005Z,100.00
2023-04-22T06:09:14.657Z,100.00
2023-04-22T06:11:41.292Z,100.00
2023-04-22T06:14:07.916Z,100.00
2023-04-22T06:16:34.637Z,100.00
2023-04-22T06:19:01.367Z,100.00
2023-04-22T06:21:28.573Z,100.00
2023-04-22T06:23:55.990Z,100.00
2023-04-22T06:26:22.813Z,100.00
2023-04-22T06:28:49.541Z,100.00
2023-04-22T06:31:16.795Z,100.00
2023-04-22T06:33:44.460Z,100.00
2023-04-22T06:36:11.295Z,100.00
2023-04-22T06:38:38.031Z,100.00
2023-04-22T06:41:04.756Z,100.00
2023-04-22T06:43:31.670Z,100.00
2023-04-22T06:45:58.365Z,100.00
2023-04-22T06:48:25.012Z,100.00
2023-04-22T06:50:51.606Z,100.00
2023-04-22T06:53:18.190Z,100.00
2023-04-22T06:55:45.305Z,100.00
2023-04-22T06:58:11.878Z,100.00
2023-04-22T07:00:38.469Z,100.00
2023-04-22T07:03:05.143Z,100.00
2023-04-22T07:05:32.083Z,100.00
2023-04-22T07:07:58.710Z,100.00
2023-04-22T07:10:25.346Z,100.00
2023-04-22T07:12:51.913Z,100.00
2023-04-22T07:15:18.591Z,100.00
2023-04-22T07:17:45.214Z,100.00
2023-04-22T07:20:11.942Z,100.00
2023-04-22T07:22:38.600Z,100.00
2023-04-22T07:25:07.426Z,100.00
2023-04-22T07:27:37.150Z,100.00
2023-04-22T07:30:04.569Z,100.00
2023-04-22T07:32:31.454Z,100.00
2023-04-22T07:34:58.025Z,100.00
2023-04-22T07:37:24.594Z,99.37
2023-04-22T07:39:51.145Z,100.00
2023-04-22T07:42:17.869Z,98.70
2023-04-22T07:44:44.450Z,99.45
2023-04-22T07:47:11.178Z,96.82
2023-04-22T07:49:38.113Z,97.54
2023-04-22T07:52:04.941Z,96.76
2023-04-22T07:54:31.503Z,96.33
2023-04-22T07:56:58.307Z,96.41
2023-04-22T07:59:24.975Z,94.42
2023-04-22T08:01:54.145Z,94.32
2023-04-22T08:04:23.909Z,92.20
2023-04-22T08:06:50.924Z,93.42
2023-04-22T08:09:17.462Z,91.08
2023-04-22T08:11:44.012Z,91.85
2023-04-22T08:14:10.590Z,90.25
2023-04-22T08:16:39.545Z,90.41
2023-04-22T08:19:06.100Z,90.86
2023-04-22T08:21:32.995Z,90.04
2023-04-22T08:23:59.562Z,89.64
2023-04-22T08:26:26.215Z,89.75
2023-04-22T08:28:52.790Z,87.52
2023-04-22T08:31:19.466Z,86.58
2023-04-22T08:33:46.253Z,86.44
2023-04-22T08:36:12.887Z,86.23
2023-04-22T08:38:39.783Z,86.20
2023-04-22T08:41:07.242Z,85.51
2023-04-22T08:43:34.587Z,86.36
2023-04-22T08:46:02.253Z,82.00
2023-04-22T08:48:31.161Z,83.88
2023-04-22T08:50:58.474Z,82.02
2023-04-22T08:53:25.368Z,81.25
2023-04-22T08:55:55.512Z,83.59
2023-04-22T08:58:23.516Z,83.17
2023-04-22T09:00:50.790Z,80.29
2023-04-22T09:03:18.164Z,80.03
2023-04-22T09:05:46.635Z,76.86
2023-04-22T09:08:15.074Z,79.80
2023-04-22T09:10:43.145Z,79.86
2023-04-22T09:13:10.604Z,80.29
2023-04-22T09:15:37.231Z,81.97
2023-04-22T09:18:06.864Z,78.89
2023-04-22T09:20:33.417Z,77.70
2023-04-22T09:23:05.051Z,79.91
2023-04-22T09:25:35.319Z,78.03
2023-04-22T09:28:03.351Z,75.99
2023-04-22T09:30:33.042Z,76.77
2023-04-22T09:33:03.948Z,75.71
2023-04-22T09:35:41.477Z,77.81
2023-04-22T09:38:11.287Z,73.61
2023-04-22T09:40:42.229Z,72.98
2023-04-22T09:43:09.805Z,73.43
2023-04-22T09:45:39.388Z,73.10
2023-04-22T09:48:17.969Z,75.29
2023-04-22T09:50:48.953Z,72.11
2023-04-22T09:53:18.612Z,74.24
2023-04-22T09:55:49.125Z,74.94
2023-04-22T09:58:18.788Z,74.50
2023-04-22T10:00:49.627Z,71.06
2023-04-22T10:03:16.741Z,72.39
2023-04-22T10:05:45.665Z,69.94
2023-04-22T10:08:14.453Z,71.80
2023-04-22T10:10:45.043Z,70.99
2023-04-22T10:13:11.601Z,72.40
2023-04-22T10:15:45.300Z,71.74
2023-04-22T10:18:17.896Z,69.80
2023-04-22T10:20:47.396Z,69.25
2023-04-22T10:23:20.096Z,69.08
2023-04-22T10:25:54.310Z,68.69
2023-04-22T10:28:23.297Z,66.89
2023-04-22T10:30:50.980Z,68.24
2023-04-22T10:33:31.806Z,65.93
2023-04-22T10:36:19.413Z,67.44
2023-04-22T10:38:55.205Z,66.83
2023-04-22T10:41:33.521Z,69.51
2023-04-22T10:44:02.660Z,69.93
2023-04-22T10:46:38.212Z,69.97
2023-04-22T10:49:11.618Z,69.96
2023-04-22T10:51:46.535Z,70.47
2023-04-22T10:54:31.591Z,71.20
2023-04-22T10:57:09.329Z,70.46
2023-04-22T10:59:45.709Z,72.27
2023-04-22T11:02:15.632Z,71.60
2023-04-22T11:04:43.124Z,69.52
2023-04-22T11:07:36.937Z,70.01
2023-04-22T11:10:16.450Z,71.23
2023-04-22T11:12:45.048Z,69.24
2023-04-22T11:15:14.677Z,70.10
2023-04-22T11:17:44.785Z,70.93
2023-04-22T11:20:17.461Z,69.80
2023-04-22T11:22:50.455Z,70.55
2023-04-22T11:25:17.959Z,70.99
2023-04-22T11:27:45.260Z,70.95
2023-04-22T11:30:18.609Z,71.20
2023-04-22T11:32:50.208Z,70.27
2023-04-22T11:35:20.734Z,70.64
2023-04-22T11:37:59.578Z,71.26
2023-04-22T11:40:39.402Z,71.01
2023-04-22T11:43:12.533Z,71.59
2023-04-22T11:45:44.101Z,71.91
2023-04-22T11:48:12.060Z,72.09
2023-04-22T11:50:44.773Z,73.43
2023-04-22T11:53:21.101Z,77.04
2023-04-22T11:55:51.280Z,79.78
2023-04-22T11:58:24.715Z,79.08
2023-04-22T12:00:53.739Z,80.45
2023-04-22T12:03:23.794Z,83.67
2023-04-22T12:06:04.986Z,86.54
2023-04-22T12:08:37.154Z,87.28
2023-04-22T12:11:06.078Z,90.13
2023-04-22T12:13:38.723Z,91.02
2023-04-22T12:16:14.070Z,90.97
2023-04-22T12:18:48.072Z,91.51
2023-04-22T12:21:17.909Z,91.13
2023-04-22T12:23:53.615Z,92.31
2023-04-22T12:26:25.416Z,93.16
2023-04-22T12:28:54.413Z,93.27
2023-04-22T12:31:21.574Z,93.45
2023-04-22T12:33:48.497Z,93.60
2023-04-22T12:36:16.226Z,94.19
2023-04-22T12:38:45.330Z,93.63
2023-04-22T12:41:13.717Z,93.94
2023-04-22T12:43:40.476Z,93.91
2023-04-22T12:46:08.789Z,94.91
2023-04-22T12:48:40.161Z,93.60
2023-04-22T12:51:07.197Z,94.23
2023-04-22T12:53:34.203Z,94.13
2023-04-22T12:56:01.189Z,94.53
2023-04-22T12:58:28.066Z,94.55
2023-04-22T13:00:54.739Z,93.82
2023-04-22T13:03:21.606Z,94.67
2023-04-22T13:05:48.545Z,94.51
2023-04-22T13:08:15.417Z,94.37
2023-04-22T13:10:42.246Z,95.46
2023-04-22T13:15:39.921Z,94.75
2023-04-22T13:18:07.680Z,95.61
2023-04-22T13:20:34.366Z,95.13
2023-04-22T13:23:02.356Z,95.00
2023-04-22T13:25:29.082Z,95.25
2023-04-22T13:27:55.805Z,95.14
2023-04-22T13:30:22.618Z,95.49
2023-04-22T13:32:49.271Z,95.91
2023-04-22T13:35:18.071Z,96.09
2023-04-22T13:37:46.108Z,96.40
2023-04-22T13:40:12.870Z,97.00
2023-04-22T13:42:39.716Z,96.49
2023-04-22T13:45:07.040Z,97.35
2023-04-22T13:47:33.716Z,97.40
2023-04-22T13:50:01.621Z,97.29
2023-04-22T13:52:28.871Z,96.51
2023-04-22T13:54:55.419Z,96.00
2023-04-22T13:57:23.063Z,96.24
2023-04-22T13:59:50.779Z,95.92
2023-04-22T14:02:17.819Z,96.03
2023-04-22T14:04:44.641Z,96.12
2023-04-22T14:07:11.677Z,96.23
2023-04-22T14:09:38.469Z,96.63
2023-04-22T14:12:07.925Z,96.91
2023-04-22T14:14:34.742Z,97.46
2023-04-22T14:17:01.577Z,97.66
2023-04-22T14:19:30.343Z,97.03
2023-04-22T14:21:57.379Z,97.77
2023-04-22T14:24:24.352Z,97.09
2023-04-22T14:26:54.432Z,96.94
2023-04-22T14:29:21.376Z,97.47
2023-04-22T14:31:49.712Z,97.05
2023-04-22T14:34:17.131Z,97.32
2023-04-22T14:36:44.123Z,97.14
2023-04-22T14:39:10.986Z,97.45
2023-04-22T14:41:39.950Z,97.50
2023-04-22T14:44:06.602Z,97.74
2023-04-22T14:46:33.305Z,97.44
2023-04-22T14:48:59.950Z,97.93
2023-04-22T14:51:27.578Z,98.01
2023-04-22T14:53:54.516Z,97.97
2023-04-22T14:56:21.419Z,98.21
2023-04-22T14:58:48.498Z,97.25
2023-04-22T15:01:15.749Z,98.06
2023-04-22T15:03:42.699Z,98.21
2023-04-22T15:06:09.470Z,98.64
2023-04-22T15:08:36.336Z,98.37
2023-04-22T15:11:02.926Z,98.56
2023-04-22T15:13:29.513Z,98.56
2023-04-22T15:15:58.461Z,98.42
2023-04-22T15:18:25.071Z,98.47
2023-04-22T15:20:51.711Z,98.71
2023-04-22T15:23:18.404Z,98.84
2023-04-22T15:25:44.965Z,98.99
2023-04-22T15:28:11.752Z,98.34
2023-04-22T15:30:40.650Z,99.00
2023-04-22T15:33:07.434Z,98.88
2023-04-22T15:35:34.114Z,98.75
2023-04-22T15:38:01.385Z,99.15
2023-04-22T15:40:28.109Z,99.21
2023-04-22T15:42:54.636Z,99.07
2023-04-22T15:45:21.467Z,99.87
2023-04-22T15:47:52.382Z,99.65
2023-04-22T15:50:20.025Z,99.13
2023-04-22T15:52:46.615Z,99.60
2023-04-22T15:55:13.355Z,99.76
2023-04-22T15:57:43.966Z,99.65
2023-04-22T16:00:13.695Z,99.48
2023-04-22T16:02:42.972Z,99.51
2023-04-22T16:05:11.679Z,99.58
2023-04-22T16:07:38.710Z,99.51
2023-04-22T16:10:05.942Z,99.14
2023-04-22T16:12:34.222Z,99.37
2023-04-22T16:15:01.627Z,99.23
2023-04-22T16:17:28.349Z,99.06
2023-04-22T16:19:55.523Z,98.82
2023-04-22T16:22:22.231Z,98.94
2023-04-22T16:24:49.168Z,98.44
2023-04-22T16:27:18.830Z,98.28
2023-04-22T16:29:49.629Z,98.19
2023-04-22T16:32:16.299Z,99.03
2023-04-22T16:34:42.951Z,99.08
2023-04-22T16:37:17.085Z,98.16
2023-04-22T16:39:43.726Z,98.03
2023-04-22T16:42:10.434Z,98.31
2023-04-22T16:44:37.036Z,99.18
2023-04-22T16:47:03.643Z,98.70
2023-04-22T16:49:30.384Z,98.79
2023-04-22T16:51:57.005Z,98.51
2023-04-22T16:54:23.587Z,98.68
2023-04-22T16:56:50.217Z,99.44
2023-04-22T16:59:16.835Z,99.68
2023-04-22T17:01:43.454Z,99.09
2023-04-22T17:04:13.565Z,99.23
2023-04-22T17:06:40.963Z,99.49
2023-04-22T17:09:10.873Z,99.11
2023-04-22T17:11:38.853Z,99.06
2023-04-22T17:14:08.102Z,99.26
2023-04-22T17:16:37.604Z,99.32
2023-04-22T17:19:08.793Z,99.51
2023-04-22T17:21:35.725Z,98.18
2023-04-22T17:24:05.755Z,98.54
2023-04-22T17:26:33.393Z,99.33
2023-04-22T17:29:13.960Z,99.39
2023-04-22T17:31:42.541Z,99.63
2023-04-22T17:34:25.083Z,99.21
2023-04-22T17:36:54.390Z,99.74
2023-04-22T17:39:32.386Z,99.78
2023-04-22T17:42:14.450Z,99.61
2023-04-22T17:44:47.864Z,99.16
2023-04-22T17:47:28.636Z,99.14
2023-04-22T17:49:56.188Z,99.39
2023-04-22T17:52:23.140Z,99.25
2023-04-22T17:54:52.329Z,98.84
2023-04-22T17:57:39.080Z,99.07
2023-04-22T18:00:10.198Z,99.56
2023-04-22T18:02:37.230Z,99.72
2023-04-22T18:05:05.569Z,99.72
2023-04-22T18:07:32.291Z,100.00
2023-04-22T18:09:58.962Z,100.00
2023-04-22T18:12:30.379Z,100.00
2023-04-22T18:14:57.981Z,100.00
2023-04-22T18:17:24.701Z,100.00
2023-04-22T18:19:54.411Z,100.00
2023-04-22T18:22:28.786Z,100.00
2023-04-22T18:24:55.519Z,99.75
2023-04-22T18:27:22.122Z,100.00
2023-04-22T18:29:48.843Z,100.00
2023-04-22T18:32:20.124Z,100.00
2023-04-22T18:34:47.075Z,100.00
2023-04-22T18:37:14.028Z,100.00
2023-04-22T18:39:40.760Z,100.00
2023-04-22T18:42:07.471Z,100.00
2023-04-22T18:44:34.220Z,100.00
2023-04-22T18:47:00.884Z,100.00
2023-04-22T18:49:27.908Z,100.00
2023-04-22T18:51:54.489Z,100.00
2023-04-22T18:54:21.201Z,100.00
2023-04-22T18:56:47.786Z,100.00
2023-04-22T18:59:14.345Z,100.00
2023-04-22T19:01:41.197Z,100.00
2023-04-22T19:04:08.132Z,100.00
2023-04-22T19:06:34.986Z,100.00
2023-04-22T19:09:01.685Z,100.00
2023-04-22T19:11:28.595Z,100.00
2023-04-22T19:13:55.567Z,100.00
2023-04-22T19:16:23.696Z,100.00
2023-04-22T19:18:52.412Z,100.00
2023-04-22T19:21:19.756Z,100.00
2023-04-22T19:23:47.031Z,100.00
2023-04-22T19:26:13.728Z,100.00
2023-04-22T19:28:47.052Z,100.00
2023-04-22T19:31:17.340Z,100.00
2023-04-22T19:33:44.953Z,100.00
2023-04-22T19:36:11.614Z,100.00
2023-04-22T19:38:38.560Z,100.00
2023-04-22T19:41:05.506Z,100.00
2023-04-22T19:43:32.155Z,100.00
2023-04-22T19:45:59.111Z,100.00
2023-04-22T19:48:26.176Z,100.00
2023-04-22T19:50:53.704Z,100.00
2023-04-22T19:53:26.076Z,100.00
2023-04-22T19:55:52.816Z,100.00
2023-04-22T19:58:19.981Z,100.00
2023-04-22T20:00:46.938Z,100.00
2023-04-22T20:03:14.753Z,100.00
2023-04-22T20:05:43.768Z,100.00
2023-04-22T20:08:16.604Z,100.00
2023-04-22T20:10:49.518Z,100.00
2023-04-22T20:13:17.298Z,100.00
2023-04-22T20:15:44.653Z,100.00
2023-04-22T20:18:11.913Z,100.00
2023-04-22T20:20:40.660Z,100.00
2023-04-22T20:23:10.709Z,100.00
2023-04-22T20:25:42.039Z,100.00
2023-04-22T20:28:10.086Z,100.00
2023-04-22T20:30:36.984Z,100.00
2023-04-22T20:33:03.802Z,100.00
2023-04-22T20:35:32.021Z,100.00
2023-04-22T20:38:01.285Z,100.00
2023-04-22T20:40:29.494Z,100.00
2023-04-22T20:43:01.103Z,100.00
2023-04-22T20:45:27.937Z,100.00
2023-04-22T20:47:54.582Z,100.00
2023-04-22T20:50:21.375Z,100.00
2023-04-22T20:52:49.170Z,100.00
2023-04-22T20:55:17.269Z,100.00
2023-04-22T20:57:44.003Z,100.00
2023-04-22T21:00:14.173Z,100.00
2023-04-22T21:02:42.171Z,100.00
2023-04-22T21:05:12.394Z,100.00
2023-04-22T21:07:44.182Z,100.00
2023-04-22T21:10:13.316Z,100.00
2023-04-22T21:12:40.438Z,100.00
2023-04-22T21:15:08.332Z,100.00
2023-04-22T21:17:37.321Z,100.00
2023-04-22T21:20:05.541Z,100.00
2023-04-22T21:22:32.846Z,100.00
2023-04-22T21:25:00.702Z,100.00
2023-04-22T21:27:27.653Z,100.00
2023-04-22T21:30:04.826Z,100.00
2023-04-22T21:32:33.020Z,100.00
2023-04-22T21:35:00.193Z,100.00
2023-04-22T21:37:35.319Z,100.00
2023-04-22T21:40:02.066Z,100.00
2023-04-22T21:42:28.848Z,100.00
2023-04-22T21:44:55.606Z,100.00
2023-04-22T21:47:22.299Z,100.00
2023-04-22T21:49:48.987Z,100.00
2023-04-22T21:52:16.343Z,100.00
2023-04-22T21:54:43.927Z,100.00
2023-04-22T21:57:12.986Z,100.00
2023-04-22T21:59:42.630Z,100.00
2023-04-22T22:02:11.691Z,100.00
2023-04-22T22:04:39.390Z,100.00
2023-04-22T22:07:07.010Z,100.00
2023-04-22T22:09:33.825Z,100.00
2023-04-22T22:12:01.887Z,100.00
2023-04-22T22:14:28.601Z,100.00
2023-04-22T22:16:55.735Z,100.00
2023-04-22T22:19:22.816Z,100.00
2023-04-22T22:21:49.502Z,100.00
2023-04-22T22:24:16.434Z,100.00
2023-04-22T22:26:43.477Z,100.00
2023-04-22T22:29:15.459Z,100.00
2023-04-22T22:31:44.317Z,100.00
2023-04-22T22:34:11.643Z,100.00
2023-04-22T22:36:38.347Z,100.00
2023-04-22T22:39:05.390Z,100.00
2023-04-22T22:41:32.222Z,100.00
2023-04-22T22:43:58.923Z,100.00
2023-04-22T22:46:25.798Z,100.00
2023-04-22T22:48:52.670Z,100.00
2023-04-22T22:51:19.300Z,100.00
2023-04-22T22:53:45.974Z,100.00
2023-04-22T22:56:15.845Z,100.00
2023-04-22T22:58:44.755Z,100.00
2023-04-22T23:01:11.502Z,100.00
2023-04-22T23:03:38.352Z,100.00
2023-04-22T23:06:05.880Z,100.00
2023-04-22T23:08:32.539Z,100.00
2023-04-22T23:10:59.158Z,100.00
2023-04-22T23:13:25.852Z,100.00
2023-04-22T23:15:52.442Z,100.00
2023-04-22T23:18:19.683Z,100.00
2023-04-22T23:20:50.018Z,100.00
2023-04-22T23:23:18.644Z,100.00
2023-04-22T23:25:46.588Z,100.00
2023-04-22T23:28:13.636Z,100.00
2023-04-22T23:30:41.497Z,100.00
2023-04-22T23:33:12.722Z,100.00
2023-04-22T23:35:41.450Z,100.00
2023-04-22T23:38:11.884Z,100.00
2023-04-22T23:40:38.593Z,100.00
2023-04-22T23:43:05.252Z,100.00
2023-04-22T23:45:32.041Z,100.00
2023-04-22T23:47:58.718Z,100.00
2023-04-22T23:50:25.436Z,100.00
2023-04-22T23:52:52.091Z,100.00
2023-04-22T23:55:19.357Z,100.00
2023-04-22T23:57:46.251Z,100.00
